createdAt,value
2018-01-02T00:02:02.767Z,14.63
2018-01-02T00:04:29.143Z,22.50
2018-01-02T00:06:56.263Z,17.83
2018-01-02T00:09:22.737Z,17.83
2018-01-02T00:11:49.131Z,15.37
2018-01-02T00:14:15.532Z,19.05
2018-01-02T00:16:42.007Z,37.42
2018-01-02T00:19:08.591Z,18.83
2018-01-02T00:21:34.970Z,23.92
2018-01-02T00:24:02.120Z,29.70
2018-01-02T00:26:28.487Z,30.80
2018-01-02T00:28:54.897Z,27.52
2018-01-02T00:31:22.075Z,20.10
2018-01-02T00:33:48.463Z,19.27
2018-01-02T00:36:14.837Z,19.40
2018-01-02T00:38:41.395Z,18.90
2018-01-02T00:41:07.765Z,17.37
2018-01-02T00:43:34.188Z,20.60
2018-01-02T00:46:00.582Z,18.97
2018-01-02T00:48:27.033Z,17.97
2018-01-02T00:50:53.431Z,28.67
2018-01-02T00:53:19.841Z,15.80
2018-01-02T00:55:46.982Z,21.90
2018-01-02T00:58:13.343Z,19.83
2018-01-02T01:00:39.774Z,36.87
2018-01-02T01:03:06.171Z,20.13
2018-01-02T01:05:32.562Z,18.00
2018-01-02T01:07:58.961Z,20.00
2018-01-02T01:10:26.070Z,24.93
2018-01-02T01:12:52.483Z,18.83
2018-01-02T01:15:18.875Z,29.43
2018-01-02T01:17:45.978Z,18.03
2018-01-02T01:20:12.358Z,21.60
2018-01-02T01:22:38.817Z,18.77
2018-01-02T01:25:05.186Z,17.90
2018-01-02T01:27:31.539Z,19.87
2018-01-02T01:29:58.672Z,16.77
2018-01-02T01:32:26.558Z,12.57
2018-01-02T01:34:53.747Z,14.43
2018-01-02T01:37:20.142Z,18.63
2018-01-02T01:39:47.242Z,14.93
2018-01-02T01:42:13.629Z,19.80
2018-01-02T01:44:40.798Z,20.83
2018-01-02T01:47:07.226Z,27.93
2018-01-02T01:49:33.607Z,20.30
2018-01-02T01:52:00.049Z,19.50
2018-01-02T01:54:26.413Z,21.50
2018-01-02T01:56:52.778Z,16.63
2018-01-02T01:59:19.205Z,21.63
2018-01-02T02:01:45.599Z,18.90
2018-01-02T02:04:12.723Z,23.30
2018-01-02T02:06:39.091Z,18.70
2018-01-02T02:09:05.460Z,20.13
2018-01-02T02:11:31.838Z,15.73
2018-01-02T02:13:59.014Z,14.57
2018-01-02T02:16:26.110Z,28.60
2018-01-02T02:18:52.511Z,23.30
2018-01-02T02:23:47.206Z,13.00
2018-01-02T02:26:13.565Z,14.30
2018-01-02T02:28:39.941Z,20.70
2018-01-02T02:31:07.070Z,19.30
2018-01-02T02:33:33.469Z,22.50
2018-01-02T02:35:59.840Z,17.63
2018-01-02T02:38:26.994Z,15.40
2018-01-02T02:41:08.201Z,12.83
2018-01-02T02:43:34.580Z,14.40
2018-01-02T02:46:01.007Z,17.73
2018-01-02T02:48:27.390Z,16.80
2018-01-02T02:50:54.505Z,16.37
2018-01-02T02:53:20.878Z,17.27
2018-01-02T02:55:47.268Z,18.00
2018-01-02T02:58:13.680Z,16.50
2018-01-02T03:00:40.136Z,15.60
2018-01-02T03:03:06.504Z,19.97
2018-01-02T03:05:32.878Z,16.30
2018-01-02T03:07:59.275Z,13.10
2018-01-02T03:10:25.666Z,21.47
2018-01-02T03:12:52.052Z,21.03
2018-01-02T03:15:18.434Z,16.83
2018-01-02T03:17:45.579Z,15.20
2018-01-02T03:20:11.959Z,14.00
2018-01-02T03:22:38.392Z,14.80
2018-01-02T03:25:04.837Z,21.07
2018-01-02T03:27:31.228Z,18.17
2018-01-02T03:29:58.354Z,19.97
2018-01-02T03:32:24.760Z,17.50
2018-01-02T03:34:51.144Z,20.00
2018-01-02T03:37:17.518Z,16.17
2018-01-02T03:39:43.925Z,17.53
2018-01-02T03:42:10.350Z,16.17
2018-01-02T03:44:36.731Z,18.40
2018-01-02T03:47:03.111Z,16.73
2018-01-02T03:49:29.512Z,11.93
2018-01-02T03:51:55.877Z,16.30
2018-01-02T03:54:22.294Z,17.53
2018-01-02T03:56:49.463Z,15.03
2018-01-02T03:59:15.882Z,9.40
2018-01-02T04:01:42.997Z,9.60
2018-01-02T04:04:09.396Z,12.43
2018-01-02T04:06:35.779Z,10.20
2018-01-02T04:09:02.178Z,6.37
2018-01-02T04:11:28.550Z,4.20
2018-01-02T04:13:55.673Z,7.07
2018-01-02T04:16:22.056Z,4.97
2018-01-02T04:18:48.435Z,3.40
2018-01-02T04:21:14.897Z,3.40
2018-01-02T04:23:42.010Z,1.90
2018-01-02T04:26:08.446Z,1.13
2018-01-02T04:28:34.926Z,1.30
2018-01-02T04:31:01.289Z,1.20
2018-01-02T04:33:27.678Z,1.30
2018-01-02T04:35:54.811Z,1.20
2018-01-02T04:38:21.194Z,1.50
2018-01-02T04:40:47.595Z,1.03
2018-01-02T04:43:14.700Z,1.00
2018-01-02T04:45:41.055Z,1.37
2018-01-02T04:48:07.419Z,1.40
2018-01-02T04:50:33.806Z,1.00
2018-01-02T04:53:00.200Z,1.00
2018-01-02T04:55:26.671Z,2.00
2018-01-02T04:57:53.054Z,1.30
2018-01-02T05:00:19.448Z,1.40
2018-01-02T05:02:45.805Z,1.57
2018-01-02T05:05:12.202Z,1.00
2018-01-02T05:07:38.584Z,1.30
2018-01-02T05:10:05.019Z,2.20
2018-01-02T05:12:31.398Z,1.60
2018-01-02T05:14:57.765Z,1.40
2018-01-02T05:17:24.865Z,1.60
2018-01-02T05:19:51.244Z,2.00
2018-01-02T05:22:17.637Z,2.33
2018-01-02T05:24:44.006Z,1.60
2018-01-02T05:27:10.475Z,1.23
2018-01-02T05:29:36.873Z,1.30
2018-01-02T05:32:04.032Z,1.83
2018-01-02T05:34:30.435Z,1.40
2018-01-02T05:36:57.576Z,1.90
2018-01-02T05:39:24.721Z,1.20
2018-01-02T05:41:51.090Z,1.47
2018-01-02T05:44:17.468Z,1.43
2018-01-02T05:46:43.848Z,2.03
2018-01-02T05:49:10.996Z,10.40
2018-01-02T05:51:38.122Z,1.40
2018-01-02T05:54:05.252Z,1.30
2018-01-02T05:56:31.661Z,1.30
2018-01-02T05:58:58.032Z,1.37
2018-01-02T06:01:25.898Z,1.40
2018-01-02T06:03:52.297Z,1.70
2018-01-02T06:06:18.693Z,1.50
2018-01-02T06:08:45.078Z,1.17
2018-01-02T06:11:11.474Z,2.80
2018-01-02T06:13:37.857Z,1.97
2018-01-02T06:16:04.976Z,1.47
2018-01-02T06:18:31.479Z,1.20
2018-01-02T06:20:57.845Z,1.20
2018-01-02T06:23:24.226Z,1.10
2018-01-02T06:25:51.393Z,1.27
2018-01-02T06:28:17.782Z,1.00
2018-01-02T06:30:45.712Z,1.63
2018-01-02T06:33:12.113Z,1.00
2018-01-02T06:35:38.490Z,0.97
2018-01-02T06:38:04.875Z,0.90
2018-01-02T06:40:31.255Z,1.10
2018-01-02T06:42:57.639Z,0.80
2018-01-02T06:45:24.735Z,0.90
2018-01-02T06:47:51.123Z,0.80
2018-01-02T06:50:17.513Z,0.80
2018-01-02T06:52:43.911Z,1.17
2018-01-02T06:55:10.281Z,1.00
2018-01-02T12:54:05.123Z,1.50
2018-01-02T12:56:31.507Z,1.47
2018-01-02T12:58:57.859Z,1.30
2018-01-02T13:01:24.236Z,6.33
2018-01-02T13:03:50.607Z,1.40
2018-01-02T13:06:16.994Z,1.50
2018-01-02T13:08:44.007Z,2.00
2018-01-02T13:11:10.399Z,1.50
2018-01-02T13:13:36.864Z,1.43
2018-01-02T13:16:03.264Z,1.20
2018-01-02T13:18:30.401Z,1.10
2018-01-02T13:20:57.547Z,2.37
2018-01-02T13:23:23.922Z,3.27
2018-01-02T13:25:50.310Z,2.10
2018-01-02T13:28:17.461Z,2.10
2018-01-02T13:30:43.866Z,1.97
2018-01-02T13:33:10.268Z,1.20
2018-01-02T13:35:36.633Z,1.50
2018-01-02T13:38:03.014Z,3.20
2018-01-02T13:40:29.373Z,2.40
2018-01-02T13:42:55.775Z,2.20
2018-01-02T13:45:22.162Z,2.50
2018-01-02T13:47:48.545Z,2.20
2018-01-02T13:50:14.919Z,2.00
2018-01-02T13:52:41.298Z,1.57
2018-01-02T13:55:08.415Z,2.10
2018-01-02T13:57:34.822Z,1.60
2018-01-02T14:00:01.202Z,2.43
2018-01-02T14:02:28.346Z,3.97
2018-01-02T14:04:55.489Z,1.80
2018-01-02T14:07:21.847Z,1.70
2018-01-02T14:09:48.209Z,5.07
2018-01-02T14:12:14.694Z,1.70
2018-01-02T14:14:41.817Z,2.20
2018-01-02T14:17:08.237Z,2.70
2018-01-02T14:19:34.648Z,3.80
2018-01-02T14:22:01.064Z,2.10
2018-01-02T14:24:27.470Z,4.43
2018-01-02T14:26:54.615Z,1.73
2018-01-02T14:29:21.774Z,2.40
2018-01-02T14:31:48.900Z,5.43
2018-01-02T14:34:15.281Z,4.07
2018-01-02T14:36:41.661Z,3.50
2018-01-02T14:39:08.055Z,2.10
2018-01-02T14:41:34.428Z,2.53
2018-01-02T14:44:00.858Z,2.97
2018-01-02T14:46:27.253Z,2.83
2018-01-02T14:48:53.739Z,2.30
2018-01-02T14:51:20.885Z,3.10
2018-01-02T14:53:48.749Z,2.67
2018-01-02T14:56:15.151Z,5.90
2018-01-02T14:58:41.536Z,11.53
2018-01-02T15:01:08.665Z,2.93
2018-01-02T15:03:36.519Z,6.53
2018-01-02T15:06:04.382Z,6.00
2018-01-02T15:08:30.755Z,9.47
2018-01-02T15:10:57.898Z,3.53
2018-01-02T15:13:24.364Z,7.63
2018-01-02T15:15:50.764Z,3.23
2018-01-02T15:18:18.031Z,2.07
2018-01-02T15:20:45.199Z,2.13
2018-01-02T15:23:11.586Z,3.30
2018-01-02T15:25:38.739Z,2.60
2018-01-02T15:28:05.823Z,4.23
2018-01-02T15:30:32.190Z,2.23
2018-01-02T15:32:58.570Z,2.93
2018-01-02T15:35:24.969Z,1.73
2018-01-02T15:37:52.126Z,7.93
2018-01-02T15:40:19.262Z,11.87
2018-01-02T15:42:45.656Z,9.97
2018-01-02T15:45:12.049Z,3.77
2018-01-02T15:47:39.167Z,24.67
2018-01-02T15:50:05.627Z,2.20
2018-01-02T15:52:32.759Z,3.90
2018-01-02T15:54:59.968Z,1.90
2018-01-02T15:57:26.353Z,1.77
2018-01-02T15:59:53.479Z,5.97
2018-01-02T16:02:19.862Z,11.30
2018-01-02T16:04:46.251Z,15.30
2018-01-02T16:07:13.391Z,8.73
2018-01-02T16:09:39.766Z,10.17
2018-01-02T16:12:06.938Z,6.00
2018-01-02T16:14:33.316Z,3.30
2018-01-02T16:16:59.694Z,4.57
2018-01-02T16:19:26.114Z,3.13
2018-01-02T16:21:52.519Z,2.57
2018-01-02T16:24:19.687Z,2.50
2018-01-02T16:26:46.822Z,2.50
2018-01-02T16:29:14.019Z,3.00
2018-01-02T16:31:40.418Z,6.13
2018-01-02T16:34:07.573Z,4.77
2018-01-02T16:36:33.991Z,7.23
2018-01-02T16:39:01.134Z,7.13
2018-01-02T16:41:28.995Z,3.33
2018-01-02T16:43:57.903Z,3.23
2018-01-02T16:46:25.054Z,12.57
2018-01-02T16:48:51.445Z,7.63
2018-01-02T16:51:18.303Z,2.90
2018-01-02T16:53:44.794Z,2.33
2018-01-02T16:56:11.222Z,7.67
2018-01-02T16:58:37.606Z,5.50
2018-01-02T17:01:05.302Z,5.53
2018-01-02T17:03:32.313Z,10.10
2018-01-02T17:05:58.692Z,5.30
2018-01-02T17:08:25.075Z,2.90
2018-01-02T17:10:52.985Z,5.47
2018-01-02T17:13:20.098Z,7.83
2018-01-02T17:15:47.250Z,2.40
2018-01-02T17:18:13.676Z,3.83
2018-01-02T17:20:41.571Z,3.50
2018-01-02T17:23:08.701Z,11.47
2018-01-02T17:25:35.079Z,9.80
2018-01-02T17:28:02.186Z,10.10
2018-01-02T17:30:28.624Z,6.77
2018-01-02T17:32:55.746Z,5.10
2018-01-02T17:35:22.139Z,4.80
2018-01-02T17:37:49.329Z,3.60
2018-01-02T17:40:15.716Z,15.70
2018-01-02T17:42:42.085Z,15.27
2018-01-02T17:45:08.454Z,4.40
2018-01-02T17:47:35.567Z,2.13
2018-01-02T17:50:01.980Z,2.30
2018-01-02T17:52:28.382Z,2.70
2018-01-02T17:54:54.801Z,2.50
2018-01-02T17:57:21.963Z,2.00
2018-01-02T17:59:48.338Z,1.97
2018-01-02T18:02:14.817Z,2.27
2018-01-02T18:04:41.986Z,1.83
2018-01-02T18:07:08.401Z,1.73
2018-01-02T18:09:35.541Z,4.63
2018-01-02T18:12:02.717Z,1.93
2018-01-02T18:14:29.104Z,1.50
2018-01-02T18:16:55.511Z,1.50
2018-01-02T18:19:21.894Z,7.43
2018-01-02T18:21:49.038Z,2.33
2018-01-02T18:24:16.191Z,3.60
2018-01-02T18:26:43.326Z,2.80
2018-01-02T18:29:10.451Z,1.80
2018-01-02T18:31:36.845Z,3.30
2018-01-02T18:34:03.268Z,51.40
2018-01-02T18:36:29.717Z,7.00
2018-01-02T18:38:56.180Z,1.90
2018-01-02T18:41:22.611Z,3.80
2018-01-02T18:43:49.022Z,18.13
2018-01-02T18:46:15.447Z,2.50
2018-01-02T18:48:41.885Z,5.70
2018-01-02T18:51:08.320Z,2.30
2018-01-02T18:53:34.734Z,2.30
2018-01-02T18:56:01.167Z,3.07
2018-01-02T18:58:27.598Z,15.77
2018-01-02T19:00:53.996Z,21.93
2018-01-02T19:03:21.659Z,4.27
2018-01-02T19:05:48.843Z,6.67
2018-01-02T19:08:15.260Z,13.33
2018-01-02T19:10:42.440Z,3.57
2018-01-02T19:13:09.132Z,3.77
2018-01-02T19:15:36.535Z,4.60
2018-01-02T19:18:02.955Z,9.77
2018-01-02T19:20:29.374Z,20.93
2018-01-02T19:22:55.814Z,19.83
2018-01-02T19:25:22.228Z,16.87
2018-01-02T19:27:49.465Z,14.13
2018-01-02T19:30:15.910Z,14.20
2018-01-02T19:32:42.377Z,7.07
2018-01-02T19:35:08.802Z,6.17
2018-01-02T19:37:35.257Z,5.47
2018-01-02T19:40:01.681Z,10.30
2018-01-02T19:42:28.213Z,6.00
2018-01-02T19:44:54.681Z,5.30
2018-01-02T19:47:21.115Z,6.10
2018-01-02T19:49:47.594Z,8.73
2018-01-02T19:52:14.014Z,6.93
2018-01-02T19:54:41.147Z,9.57
2018-01-02T19:57:08.267Z,15.40
2018-01-02T19:59:34.665Z,21.13
2018-01-02T20:02:01.051Z,13.37
2018-01-02T20:04:27.428Z,8.60
2018-01-02T20:06:53.822Z,7.53
2018-01-02T20:09:20.223Z,6.43
2018-01-02T20:11:46.614Z,10.50
2018-01-02T20:14:13.723Z,7.30
2018-01-02T20:16:40.114Z,6.60
2018-01-02T20:19:06.499Z,6.60
2018-01-02T20:21:32.896Z,6.63
2018-01-02T20:23:59.305Z,7.53
2018-01-02T20:26:25.735Z,5.70
2018-01-02T20:28:52.118Z,5.30
2018-01-02T20:31:18.535Z,5.40
2018-01-02T20:33:44.971Z,3.90
2018-01-02T20:36:11.396Z,6.90
2018-01-02T20:38:37.808Z,4.93
2018-01-02T20:41:04.229Z,6.10
2018-01-02T20:43:30.662Z,6.07
2018-01-02T20:45:57.837Z,5.37
2018-01-02T20:48:24.218Z,6.53
2018-01-02T20:50:51.357Z,4.43
2018-01-02T20:53:17.743Z,6.00
2018-01-02T20:55:44.474Z,6.53
2018-01-02T20:58:10.858Z,9.07
2018-01-02T21:00:37.273Z,4.73
2018-01-02T21:03:03.654Z,4.50
2018-01-02T21:05:30.872Z,4.50
2018-01-02T21:07:57.286Z,7.10
2018-01-02T21:10:23.705Z,5.53
2018-01-02T21:12:50.113Z,4.57
2018-01-02T21:15:16.494Z,6.07
2018-01-02T21:17:42.878Z,3.97
2018-01-02T21:20:09.274Z,4.03
2018-01-02T21:22:35.656Z,6.13
2018-01-02T21:25:02.047Z,4.67
2018-01-02T21:27:29.146Z,5.80
2018-01-02T21:29:55.517Z,6.07
2018-01-02T21:32:21.911Z,32.27
2018-01-02T21:34:48.289Z,18.13
2018-01-02T21:37:14.685Z,5.70
2018-01-02T21:39:41.057Z,6.63
2018-01-02T21:42:08.194Z,5.30
2018-01-02T21:44:35.330Z,6.80
2018-01-02T21:47:01.736Z,7.23
2018-01-02T21:49:29.088Z,18.47
2018-01-02T21:51:55.526Z,11.63
2018-01-02T21:54:21.909Z,8.50
2018-01-02T21:56:49.040Z,10.80
2018-01-02T21:59:15.414Z,7.17
2018-01-02T22:01:41.838Z,5.50
2018-01-02T22:04:08.271Z,8.57
2018-01-02T22:06:35.396Z,22.13
2018-01-02T22:09:02.595Z,6.50
2018-01-02T22:11:28.995Z,7.73
2018-01-02T22:13:56.119Z,9.10
2018-01-02T22:16:22.501Z,5.10
2018-01-02T22:18:48.905Z,19.63
2018-01-02T22:21:15.298Z,16.23
2018-01-02T22:23:41.732Z,16.17
2018-01-02T22:26:08.114Z,16.13
2018-01-02T22:28:34.518Z,13.73
2018-01-02T22:31:00.937Z,11.63
2018-01-02T22:33:27.335Z,15.23
2018-01-02T22:35:53.784Z,17.27
2018-01-02T22:38:20.151Z,23.00
2018-01-02T22:40:46.530Z,22.10
2018-01-02T22:43:12.927Z,12.50
2018-01-02T22:45:40.066Z,12.47
2018-01-02T22:48:07.202Z,14.60
2018-01-02T22:50:33.590Z,14.63
2018-01-02T22:53:00.064Z,14.33
2018-01-02T22:55:26.450Z,11.07
2018-01-02T22:57:53.698Z,9.57
2018-01-02T23:00:20.101Z,11.47
2018-01-02T23:02:47.225Z,13.90
2018-01-02T23:05:13.654Z,28.03
2018-01-02T23:07:40.036Z,12.43
2018-01-02T23:10:06.438Z,14.77
2018-01-02T23:12:32.829Z,7.87
2018-01-02T23:14:59.214Z,16.03
2018-01-02T23:17:26.343Z,9.63
2018-01-02T23:19:52.752Z,10.07
2018-01-02T23:22:19.138Z,14.27
2018-01-02T23:24:45.550Z,8.60
2018-01-02T23:27:12.669Z,10.47
2018-01-02T23:29:39.064Z,7.33
2018-01-02T23:32:05.478Z,5.30
2018-01-02T23:34:32.673Z,6.40
2018-01-02T23:36:59.067Z,8.77
2018-01-02T23:39:26.191Z,12.03
2018-01-02T23:41:52.566Z,7.90
2018-01-02T23:44:18.956Z,9.77
2018-01-02T23:46:45.349Z,5.93
2018-01-02T23:49:12.208Z,8.87
2018-01-02T23:51:38.598Z,5.83
2018-01-02T23:54:04.974Z,13.53
2018-01-02T23:56:32.121Z,12.47
2018-01-02T23:58:58.498Z,11.47
